sensor_id;sensor_type;location;lat;lon;timestamp;temperature;humidity
10143;DHT22;5112;54.088;13.446;2023-05-07T00:05:47;8.50;99.90
10143;DHT22;5112;54.088;13.446;2023-05-07T00:15:51;8.50;99.90
10143;DHT22;5112;54.088;13.446;2023-05-07T00:25:52;8.50;99.90
10143;DHT22;5112;54.088;13.446;2023-05-07T00:35:55;8.50;99.90
10143;DHT22;5112;54.088;13.446;2023-05-07T00:45:57;8.50;99.90
10143;DHT22;5112;54.088;13.446;2023-05-07T00:56:00;8.50;99.90
10143;DHT22;5112;54.088;13.446;2023-05-07T01:06:03;8.50;99.90
10143;DHT22;5112;54.088;13.446;2023-05-07T01:16:07;8.50;99.90
10143;DHT22;5112;54.088;13.446;2023-05-07T01:26:11;8.30;99.90
10143;DHT22;5112;54.088;13.446;2023-05-07T01:36:13;8.30;99.90
10143;DHT22;5112;54.088;13.446;2023-05-07T01:46:18;8.20;99.90
10143;DHT22;5112;54.088;13.446;2023-05-07T01:56:20;8.20;99.90
10143;DHT22;5112;54.088;13.446;2023-05-07T02:06:23;8.20;99.90
10143;DHT22;5112;54.088;13.446;2023-05-07T02:16:25;8.00;99.90
10143;DHT22;5112;54.088;13.446;2023-05-07T02:26:28;7.70;99.90
10143;DHT22;5112;54.088;13.446;2023-05-07T02:36:29;7.50;99.90
10143;DHT22;5112;54.088;13.446;2023-05-07T02:46:32;7.50;99.90
10143;DHT22;5112;54.088;13.446;2023-05-07T02:56:34;7.60;99.90
10143;DHT22;5112;54.088;13.446;2023-05-07T03:06:37;7.50;99.90
10143;DHT22;5112;54.088;13.446;2023-05-07T03:16:39;7.40;99.90
10143;DHT22;5112;54.088;13.446;2023-05-07T03:26:42;7.10;99.90
10143;DHT22;5112;54.088;13.446;2023-05-07T03:36:44;7.00;99.90
10143;DHT22;5112;54.088;13.446;2023-05-07T03:46:47;7.00;99.90
10143;DHT22;5112;54.088;13.446;2023-05-07T03:56:49;6.80;99.90
10143;DHT22;5112;54.088;13.446;2023-05-07T04:06:52;6.80;99.90
10143;DHT22;5112;54.088;13.446;2023-05-07T04:16:53;6.70;99.90
10143;DHT22;5112;54.088;13.446;2023-05-07T04:26:56;6.90;99.90
10143;DHT22;5112;54.088;13.446;2023-05-07T04:36:59;8.70;99.90
10143;DHT22;5112;54.088;13.446;2023-05-07T04:47:02;10.30;99.90
10143;DHT22;5112;54.088;13.446;2023-05-07T04:57:04;9.70;99.90
10143;DHT22;5112;54.088;13.446;2023-05-07T05:07:07;9.20;99.90
10143;DHT22;5112;54.088;13.446;2023-05-07T05:17:09;9.60;99.90
10143;DHT22;5112;54.088;13.446;2023-05-07T05:27:12;9.00;99.90
10143;DHT22;5112;54.088;13.446;2023-05-07T05:37:14;9.00;99.90
10143;DHT22;5112;54.088;13.446;2023-05-07T05:47:17;9.30;99.90
10143;DHT22;5112;54.088;13.446;2023-05-07T05:57:18;9.90;99.90
10143;DHT22;5112;54.088;13.446;2023-05-07T06:07:22;10.40;99.90
10143;DHT22;5112;54.088;13.446;2023-05-07T06:17:23;11.00;99.90
10143;DHT22;5112;54.088;13.446;2023-05-07T06:27:26;11.50;99.90
10143;DHT22;5112;54.088;13.446;2023-05-07T06:37:28;11.80;99.90
10143;DHT22;5112;54.088;13.446;2023-05-07T06:47:31;12.30;99.90
10143;DHT22;5112;54.088;13.446;2023-05-07T06:57:33;12.60;99.90
10143;DHT22;5112;54.088;13.446;2023-05-07T07:07:36;12.80;99.90
10143;DHT22;5112;54.088;13.446;2023-05-07T07:17:38;13.20;99.90
10143;DHT22;5112;54.088;13.446;2023-05-07T07:27:41;13.50;99.90
10143;DHT22;5112;54.088;13.446;2023-05-07T07:37:42;13.50;99.90
10143;DHT22;5112;54.088;13.446;2023-05-07T07:47:45;13.70;99.90
10143;DHT22;5112;54.088;13.446;2023-05-07T07:57:47;13.80;99.90
10143;DHT22;5112;54.088;13.446;2023-05-07T08:07:50;13.90;99.90
10143;DHT22;5112;54.088;13.446;2023-05-07T08:17:53;13.90;99.90
10143;DHT22;5112;54.088;13.446;2023-05-07T08:27:57;14.20;99.90
10143;DHT22;5112;54.088;13.446;2023-05-07T08:37:59;14.20;99.90
10143;DHT22;5112;54.088;13.446;2023-05-07T08:48:09;14.80;99.90
10143;DHT22;5112;54.088;13.446;2023-05-07T08:58:11;14.90;99.90
10143;DHT22;5112;54.088;13.446;2023-05-07T09:08:15;15.50;99.90
10143;DHT22;5112;54.088;13.446;2023-05-07T09:18:17;15.30;99.90
10143;DHT22;5112;54.088;13.446;2023-05-07T09:28:20;15.60;99.90
10143;DHT22;5112;54.088;13.446;2023-05-07T09:38:21;15.90;99.90
10143;DHT22;5112;54.088;13.446;2023-05-07T09:48:25;16.00;99.90
10143;DHT22;5112;54.088;13.446;2023-05-07T09:58:28;16.00;99.90
10143;DHT22;5112;54.088;13.446;2023-05-07T10:08:32;16.10;99.90
10143;DHT22;5112;54.088;13.446;2023-05-07T10:18:34;16.40;99.90
10143;DHT22;5112;54.088;13.446;2023-05-07T10:28:41;16.50;98.50
10143;DHT22;5112;54.088;13.446;2023-05-07T10:38:43;16.60;99.20
10143;DHT22;5112;54.088;13.446;2023-05-07T10:49:07;16.70;96.10
10143;DHT22;5112;54.088;13.446;2023-05-07T10:59:30;16.60;95.20
10143;DHT22;5112;54.088;13.446;2023-05-07T11:09:57;17.00;93.80
10143;DHT22;5112;54.088;13.446;2023-05-07T11:20:02;17.10;93.70
10143;DHT22;5112;54.088;13.446;2023-05-07T11:30:07;17.40;92.40
10143;DHT22;5112;54.088;13.446;2023-05-07T11:40:10;17.20;93.20
10143;DHT22;5112;54.088;13.446;2023-05-07T11:50:15;17.50;94.80
10143;DHT22;5112;54.088;13.446;2023-05-07T12:00:17;17.60;96.30
10143;DHT22;5112;54.088;13.446;2023-05-07T12:10:20;17.60;94.70
10143;DHT22;5112;54.088;13.446;2023-05-07T12:20:22;18.00;94.00
10143;DHT22;5112;54.088;13.446;2023-05-07T12:30:25;17.40;94.30
10143;DHT22;5112;54.088;13.446;2023-05-07T12:40:36;18.00;96.60
10143;DHT22;5112;54.088;13.446;2023-05-07T12:50:39;17.90;93.40
10143;DHT22;5112;54.088;13.446;2023-05-07T13:00:41;17.90;92.90
10143;DHT22;5112;54.088;13.446;2023-05-07T13:10:45;17.90;91.90
10143;DHT22;5112;54.088;13.446;2023-05-07T13:20:46;17.70;91.50
10143;DHT22;5112;54.088;13.446;2023-05-07T13:30:49;17.80;91.70
10143;DHT22;5112;54.088;13.446;2023-05-07T13:40:52;17.40;92.50
10143;DHT22;5112;54.088;13.446;2023-05-07T13:50:55;17.40;90.40
10143;DHT22;5112;54.088;13.446;2023-05-07T14:00:56;17.80;90.30
10143;DHT22;5112;54.088;13.446;2023-05-07T14:10:59;17.20;90.50
10143;DHT22;5112;54.088;13.446;2023-05-07T14:21:01;17.80;90.80
10143;DHT22;5112;54.088;13.446;2023-05-07T14:31:04;17.10;90.60
10143;DHT22;5112;54.088;13.446;2023-05-07T14:41:06;16.40;90.40
10143;DHT22;5112;54.088;13.446;2023-05-07T14:51:09;16.30;90.80
10143;DHT22;5112;54.088;13.446;2023-05-07T15:01:11;15.90;91.00
10143;DHT22;5112;54.088;13.446;2023-05-07T15:11:14;16.10;91.60
10143;DHT22;5112;54.088;13.446;2023-05-07T15:21:16;15.80;91.00
10143;DHT22;5112;54.088;13.446;2023-05-07T15:31:20;15.20;92.00
10143;DHT22;5112;54.088;13.446;2023-05-07T15:41:21;15.60;92.90
10143;DHT22;5112;54.088;13.446;2023-05-07T15:51:24;15.20;92.80
10143;DHT22;5112;54.088;13.446;2023-05-07T16:01:27;14.90;93.00
10143;DHT22;5112;54.088;13.446;2023-05-07T16:11:30;14.80;94.70
10143;DHT22;5112;54.088;13.446;2023-05-07T16:21:33;14.70;95.00
10143;DHT22;5112;54.088;13.446;2023-05-07T16:31:36;14.70;94.00
10143;DHT22;5112;54.088;13.446;2023-05-07T16:41:37;14.10;95.60
10143;DHT22;5112;54.088;13.446;2023-05-07T16:51:40;13.90;97.50
10143;DHT22;5112;54.088;13.446;2023-05-07T17:01:43;13.70;97.90
10143;DHT22;5112;54.088;13.446;2023-05-07T17:11:46;14.00;97.60
10143;DHT22;5112;54.088;13.446;2023-05-07T17:21:48;14.20;98.00
10143;DHT22;5112;54.088;13.446;2023-05-07T17:31:51;14.20;97.80
10143;DHT22;5112;54.088;13.446;2023-05-07T17:41:53;14.00;98.90
10143;DHT22;5112;54.088;13.446;2023-05-07T17:51:56;12.70;99.90
10143;DHT22;5112;54.088;13.446;2023-05-07T18:01:57;12.50;99.90
10143;DHT22;5112;54.088;13.446;2023-05-07T18:12:00;12.40;99.90
10143;DHT22;5112;54.088;13.446;2023-05-07T18:22:02;11.80;99.90
10143;DHT22;5112;54.088;13.446;2023-05-07T18:32:06;11.40;99.90
10143;DHT22;5112;54.088;13.446;2023-05-07T18:42:08;11.00;99.90
10143;DHT22;5112;54.088;13.446;2023-05-07T18:52:11;10.80;99.90
10143;DHT22;5112;54.088;13.446;2023-05-07T19:02:13;10.40;99.90
10143;DHT22;5112;54.088;13.446;2023-05-07T19:12:17;10.20;99.90
10143;DHT22;5112;54.088;13.446;2023-05-07T19:22:19;10.00;99.90
10143;DHT22;5112;54.088;13.446;2023-05-07T19:32:22;9.90;99.90
10143;DHT22;5112;54.088;13.446;2023-05-07T19:42:23;9.70;99.90
10143;DHT22;5112;54.088;13.446;2023-05-07T19:52:26;9.60;99.90
10143;DHT22;5112;54.088;13.446;2023-05-07T20:02:28;9.40;99.90
10143;DHT22;5112;54.088;13.446;2023-05-07T20:12:31;9.30;99.90
10143;DHT22;5112;54.088;13.446;2023-05-07T20:22:33;9.30;99.90
10143;DHT22;5112;54.088;13.446;2023-05-07T20:32:36;9.10;99.90
10143;DHT22;5112;54.088;13.446;2023-05-07T20:42:37;9.10;99.90
10143;DHT22;5112;54.088;13.446;2023-05-07T20:52:41;9.00;99.90
10143;DHT22;5112;54.088;13.446;2023-05-07T21:02:43;9.00;99.90
10143;DHT22;5112;54.088;13.446;2023-05-07T21:12:46;8.90;99.90
10143;DHT22;5112;54.088;13.446;2023-05-07T21:22:48;8.70;99.90
10143;DHT22;5112;54.088;13.446;2023-05-07T21:32:51;8.60;99.90
10143;DHT22;5112;54.088;13.446;2023-05-07T21:42:54;8.50;99.90
10143;DHT22;5112;54.088;13.446;2023-05-07T21:52:57;8.40;99.90
10143;DHT22;5112;54.088;13.446;2023-05-07T22:02:59;8.20;99.90
10143;DHT22;5112;54.088;13.446;2023-05-07T22:13:02;8.20;99.90
10143;DHT22;5112;54.088;13.446;2023-05-07T22:23:04;8.00;99.90
10143;DHT22;5112;54.088;13.446;2023-05-07T22:33:07;7.70;99.90
10143;DHT22;5112;54.088;13.446;2023-05-07T22:43:09;7.50;99.90
10143;DHT22;5112;54.088;13.446;2023-05-07T22:53:11;7.30;99.90
10143;DHT22;5112;54.088;13.446;2023-05-07T23:03:13;7.10;99.90
10143;DHT22;5112;54.088;13.446;2023-05-07T23:13:16;6.90;99.90
10143;DHT22;5112;54.088;13.446;2023-05-07T23:23:18;6.70;99.90
10143;DHT22;5112;54.088;13.446;2023-05-07T23:33:22;6.50;99.90
10143;DHT22;5112;54.088;13.446;2023-05-07T23:43:23;6.40;99.90
10143;DHT22;5112;54.088;13.446;2023-05-07T23:53:27;6.20;99.90
